createdAt,value
2022-12-03T00:01:17.769Z,6.47
2022-12-03T00:04:20.538Z,5.38
2022-12-03T00:07:23.276Z,6.00
2022-12-03T00:10:26.050Z,5.70
2022-12-03T00:13:28.800Z,5.78
2022-12-03T00:16:32.812Z,5.85
2022-12-03T00:19:35.491Z,5.72
2022-12-03T00:22:38.081Z,4.78
2022-12-03T00:25:43.160Z,5.25
2022-12-03T00:28:48.344Z,6.20
2022-12-03T00:31:52.398Z,4.88
2022-12-03T00:34:55.939Z,6.15
2022-12-03T00:38:01.621Z,6.68
2022-12-03T00:41:04.375Z,6.43
2022-12-03T00:44:07.096Z,6.03
2022-12-03T00:47:11.245Z,6.63
2022-12-03T00:50:13.950Z,6.00
2022-12-03T00:53:16.916Z,5.85
2022-12-03T00:56:19.703Z,6.53
2022-12-03T00:59:22.490Z,6.60
2022-12-03T01:02:26.634Z,6.65
2022-12-03T01:05:29.412Z,5.80
2022-12-03T01:08:32.155Z,6.50
2022-12-03T01:11:41.088Z,7.65
2022-12-03T01:14:44.703Z,7.40
2022-12-03T01:17:48.901Z,6.43
2022-12-03T01:20:52.035Z,6.85
2022-12-03T01:23:54.917Z,6.93
2022-12-03T01:26:58.282Z,6.88
2022-12-03T01:30:00.901Z,7.72
2022-12-03T01:33:03.999Z,7.03
2022-12-03T01:36:06.947Z,7.22
2022-12-03T01:39:09.716Z,7.60
2022-12-03T01:42:14.239Z,7.20
2022-12-03T01:45:21.777Z,6.60
2022-12-03T01:48:25.796Z,7.22
2022-12-03T01:51:30.427Z,7.10
2022-12-03T01:54:37.547Z,6.57
2022-12-03T01:57:41.612Z,7.20
2022-12-03T02:00:44.528Z,8.23
2022-12-03T02:03:48.542Z,8.45
2022-12-03T02:06:51.147Z,7.32
2022-12-03T02:09:54.735Z,8.07
2022-12-03T02:12:58.993Z,7.55
2022-12-03T02:16:01.737Z,7.22
2022-12-03T02:19:08.313Z,7.65
2022-12-03T02:22:16.679Z,8.32
2022-12-03T02:25:21.829Z,7.53
2022-12-03T02:28:24.495Z,7.78
2022-12-03T02:31:27.204Z,7.40
2022-12-03T02:34:39.949Z,7.25
2022-12-03T02:37:43.104Z,7.40
2022-12-03T02:40:48.137Z,7.45
2022-12-03T02:43:50.457Z,8.82
2022-12-03T02:46:53.601Z,8.77
2022-12-03T02:49:56.843Z,6.88
2022-12-03T02:53:00.915Z,8.13
2022-12-03T02:56:05.645Z,6.82
2022-12-03T02:59:08.204Z,7.35
2022-12-03T03:02:11.496Z,8.38
2022-12-03T03:05:15.680Z,7.68
2022-12-03T03:08:18.952Z,8.10
2022-12-03T03:11:23.038Z,8.93
2022-12-03T03:14:25.671Z,7.35
2022-12-03T03:17:28.412Z,9.07
2022-12-03T03:20:31.759Z,9.32
2022-12-03T03:23:34.600Z,7.13
2022-12-03T03:26:38.480Z,7.70
2022-12-03T03:29:41.199Z,9.25
2022-12-03T03:32:45.855Z,7.80
2022-12-03T03:35:48.921Z,8.15
2022-12-03T03:38:51.711Z,8.10
2022-12-03T03:41:57.735Z,8.20
2022-12-03T03:45:00.639Z,8.80
2022-12-03T03:48:03.425Z,9.35
2022-12-03T03:51:09.335Z,6.90
2022-12-03T03:54:12.086Z,7.88
2022-12-03T03:57:16.052Z,9.02
2022-12-03T04:00:19.003Z,9.15
2022-12-03T04:03:21.645Z,9.13
2022-12-03T04:06:24.240Z,9.15
2022-12-03T04:09:26.811Z,8.27
2022-12-03T04:12:48.468Z,9.15
2022-12-03T04:15:51.046Z,7.78
2022-12-03T04:18:53.682Z,8.30
2022-12-03T04:22:13.829Z,8.57
2022-12-03T04:25:34.102Z,7.72
2022-12-03T04:28:52.798Z,9.27
2022-12-03T04:32:14.221Z,8.38
2022-12-03T04:35:34.361Z,8.88
2022-12-03T04:38:36.949Z,9.48
2022-12-03T04:41:39.455Z,7.75
2022-12-03T04:44:43.590Z,9.52
2022-12-03T04:47:46.382Z,10.27
2022-12-03T04:50:49.039Z,8.75
2022-12-03T04:53:51.661Z,10.60
2022-12-03T04:56:54.262Z,9.48
2022-12-03T04:59:58.269Z,9.18
2022-12-03T05:03:01.348Z,8.80
2022-12-03T05:06:03.952Z,8.48
2022-12-03T05:09:06.518Z,8.73
2022-12-03T05:12:09.245Z,8.75
2022-12-03T05:15:13.223Z,8.63
2022-12-03T05:18:15.755Z,9.30
2022-12-03T05:21:18.541Z,8.88
2022-12-03T05:24:21.102Z,8.27
2022-12-03T05:27:24.391Z,9.05
2022-12-03T05:30:28.538Z,9.00
2022-12-03T05:33:32.514Z,8.00
2022-12-03T05:36:35.008Z,8.40
2022-12-03T05:39:37.589Z,7.50
2022-12-03T05:42:56.661Z,7.68
2022-12-03T05:46:00.572Z,8.00
2022-12-03T05:49:05.785Z,9.13
2022-12-03T05:52:08.287Z,8.27
2022-12-03T05:55:11.811Z,8.00
2022-12-03T05:58:14.378Z,8.50
2022-12-03T06:01:18.254Z,10.05
2022-12-03T06:04:20.774Z,8.43
2022-12-03T06:07:23.451Z,8.30
2022-12-03T06:10:26.802Z,8.25
2022-12-03T06:13:29.372Z,8.15
2022-12-03T06:16:33.470Z,8.70
2022-12-03T06:19:36.298Z,8.60
2022-12-03T06:22:38.916Z,9.10
2022-12-03T06:25:41.450Z,8.05
2022-12-03T06:28:46.167Z,7.72
2022-12-03T06:31:50.119Z,8.48
2022-12-03T06:34:53.052Z,8.70
2022-12-03T06:37:55.855Z,8.40
2022-12-03T06:40:58.401Z,8.32
2022-12-03T06:44:01.066Z,9.07
2022-12-03T06:47:05.048Z,7.82
2022-12-03T06:50:08.842Z,8.38
2022-12-03T06:53:11.396Z,8.88
2022-12-03T06:56:13.934Z,8.35
2022-12-03T06:59:16.653Z,8.60
2022-12-03T07:02:21.594Z,7.82
2022-12-03T07:05:24.177Z,7.95
2022-12-03T07:08:27.263Z,7.30
2022-12-03T07:11:33.121Z,8.88
2022-12-03T07:14:35.725Z,8.48
2022-12-03T07:17:39.846Z,8.23
2022-12-03T07:20:42.470Z,9.88
2022-12-03T07:23:45.089Z,7.53
2022-12-03T07:26:47.716Z,8.85
2022-12-03T07:29:50.414Z,7.75
2022-12-03T07:32:54.603Z,8.35
2022-12-03T07:35:57.151Z,7.65
2022-12-03T07:39:00.715Z,8.40
2022-12-03T07:42:03.381Z,8.38
2022-12-03T07:45:06.421Z,7.53
2022-12-03T07:48:10.343Z,7.70
2022-12-03T07:51:15.482Z,8.63
2022-12-03T07:54:18.458Z,8.68
2022-12-03T07:57:22.042Z,8.88
2022-12-03T08:00:24.823Z,8.63
2022-12-03T08:03:28.717Z,7.80
2022-12-03T08:06:31.378Z,9.15
2022-12-03T08:09:34.022Z,8.02
2022-12-03T08:12:42.498Z,9.18
2022-12-03T08:15:45.492Z,9.32
2022-12-03T08:18:50.224Z,8.23
2022-12-03T08:21:57.985Z,8.80
2022-12-03T08:25:03.725Z,8.55
2022-12-03T08:28:11.901Z,8.40
2022-12-03T08:31:19.796Z,7.63
2022-12-03T08:34:24.628Z,8.32
2022-12-03T08:37:27.327Z,8.45
2022-12-03T08:40:35.501Z,9.07
2022-12-03T08:43:42.709Z,8.90
2022-12-03T08:46:45.659Z,8.18
2022-12-03T08:49:52.439Z,8.30
2022-12-03T08:52:58.364Z,9.18
2022-12-03T08:56:01.488Z,8.50
2022-12-03T08:59:16.531Z,11.25
2022-12-03T09:02:25.995Z,9.05
2022-12-03T09:05:32.260Z,9.25
2022-12-03T09:08:35.192Z,8.48
2022-12-03T09:11:38.048Z,7.93
2022-12-03T09:14:40.722Z,9.02
2022-12-03T09:17:43.377Z,9.23
2022-12-03T09:20:47.610Z,8.80
2022-12-03T09:23:50.430Z,10.25
2022-12-03T09:26:54.364Z,8.68
2022-12-03T09:29:57.284Z,8.45
2022-12-03T09:33:00.544Z,8.85
2022-12-03T09:36:04.899Z,9.10
2022-12-03T09:39:07.554Z,9.05
2022-12-03T09:42:10.444Z,6.97
2022-12-03T09:45:14.248Z,8.38
2022-12-03T09:48:17.337Z,8.60
2022-12-03T09:51:21.639Z,8.55
2022-12-03T09:54:25.321Z,7.97
2022-12-03T09:57:28.029Z,8.32
2022-12-03T10:00:31.270Z,7.72
2022-12-03T10:03:37.410Z,8.40
2022-12-03T10:06:45.715Z,9.13
2022-12-03T10:09:49.081Z,8.13
2022-12-03T10:12:52.293Z,8.23
2022-12-03T10:15:56.391Z,8.30
2022-12-03T10:19:00.485Z,7.53
2022-12-03T10:22:04.600Z,8.68
2022-12-03T10:25:10.082Z,7.57
2022-12-03T10:28:12.706Z,9.18
2022-12-03T10:31:16.271Z,8.48
2022-12-03T10:34:24.883Z,8.90
2022-12-03T10:37:28.949Z,7.13
2022-12-03T10:40:33.033Z,8.27
2022-12-03T10:43:35.600Z,8.80
2022-12-03T10:46:38.496Z,8.05
2022-12-03T10:49:41.457Z,9.07
2022-12-03T10:53:03.764Z,8.05
2022-12-03T10:56:07.488Z,8.60
2022-12-03T10:59:14.171Z,7.70
2022-12-03T11:02:19.734Z,9.57
2022-12-03T11:05:26.586Z,8.82
2022-12-03T11:08:32.392Z,8.85
2022-12-03T11:11:35.222Z,7.72
2022-12-03T11:15:06.194Z,6.93
2022-12-03T11:18:09.104Z,6.30
2022-12-03T11:21:12.596Z,8.60
2022-12-03T11:24:20.800Z,9.30
2022-12-03T11:27:23.610Z,8.40
2022-12-03T11:30:57.043Z,8.40
2022-12-03T11:34:32.412Z,7.63
2022-12-03T11:37:35.979Z,7.85
2022-12-03T11:40:40.234Z,7.47
2022-12-03T11:43:58.523Z,7.25
2022-12-03T11:47:08.917Z,9.43
2022-12-03T11:50:21.038Z,13.23
2022-12-03T11:53:24.757Z,12.30
2022-12-03T11:56:30.305Z,11.07
2022-12-03T11:59:33.001Z,19.50
2022-12-03T12:02:35.931Z,12.05
2022-12-03T12:05:38.509Z,7.93
2022-12-03T12:08:41.892Z,8.23
2022-12-03T12:11:45.958Z,19.27
2022-12-03T12:14:48.746Z,8.32
2022-12-03T12:17:51.287Z,7.13
2022-12-03T12:20:54.021Z,6.95
2022-12-03T12:23:56.590Z,6.45
2022-12-03T12:27:01.786Z,13.65
2022-12-03T12:30:06.949Z,12.48
2022-12-03T12:33:15.322Z,8.10
2022-12-03T12:36:18.213Z,7.22
2022-12-03T12:39:24.103Z,7.93
2022-12-03T12:42:37.986Z,6.65
2022-12-03T12:45:47.779Z,8.32
2022-12-03T12:48:56.511Z,7.18
2022-12-03T12:52:02.133Z,7.63
2022-12-03T12:55:07.923Z,8.75
2022-12-03T12:58:16.389Z,7.13
2022-12-03T13:01:21.395Z,8.02
2022-12-03T13:04:24.689Z,8.48
2022-12-03T13:07:27.436Z,8.57
2022-12-03T13:10:39.783Z,8.02
2022-12-03T13:13:44.675Z,9.60
2022-12-03T13:16:56.615Z,6.90
2022-12-03T13:20:07.618Z,7.28
2022-12-03T13:23:23.036Z,8.35
2022-12-03T13:26:40.129Z,7.57
2022-12-03T13:29:45.520Z,7.25
2022-12-03T13:32:48.647Z,7.82
2022-12-03T13:35:52.521Z,5.10
2022-12-03T13:39:11.414Z,9.98
2022-12-03T13:42:35.079Z,9.73
2022-12-03T13:45:41.015Z,11.52
2022-12-03T13:48:45.165Z,8.95
2022-12-03T13:51:48.136Z,8.55
2022-12-03T13:57:54.987Z,8.20
2022-12-03T14:00:59.135Z,7.53
2022-12-03T14:04:01.819Z,7.93
2022-12-03T14:07:04.554Z,7.47
2022-12-03T14:10:07.988Z,7.32
2022-12-03T14:13:11.055Z,7.43
2022-12-03T14:16:15.899Z,7.38
2022-12-03T14:19:18.562Z,8.27
2022-12-03T14:22:23.391Z,6.78
2022-12-03T14:25:26.042Z,7.40
2022-12-03T14:28:28.928Z,8.50
2022-12-03T14:31:32.951Z,7.38
2022-12-03T14:34:35.522Z,9.52
2022-12-03T14:37:47.278Z,10.35
2022-12-03T14:40:49.735Z,10.07
2022-12-03T14:43:52.205Z,13.93
2022-12-03T14:46:57.502Z,13.50
2022-12-03T14:50:00.279Z,10.48
2022-12-03T14:53:02.727Z,8.98
2022-12-03T14:56:05.293Z,8.20
2022-12-03T14:59:08.518Z,10.98
2022-12-03T15:02:13.100Z,9.05
2022-12-03T15:05:15.864Z,9.18
2022-12-03T15:08:18.516Z,7.82
2022-12-03T15:11:21.042Z,8.30
2022-12-03T15:14:23.526Z,7.95
2022-12-03T15:17:32.186Z,8.60
2022-12-03T15:20:35.506Z,8.90
2022-12-03T15:23:38.714Z,9.32
2022-12-03T15:26:46.528Z,11.48
2022-12-03T15:29:49.230Z,8.07
2022-12-03T15:32:52.991Z,8.98
2022-12-03T15:36:02.452Z,6.22
2022-12-03T15:39:05.029Z,9.50
2022-12-03T15:42:08.935Z,9.27
2022-12-03T15:45:15.310Z,11.93
2022-12-03T15:48:22.149Z,13.73
2022-12-03T15:51:24.623Z,10.60
2022-12-03T15:54:27.224Z,10.07
2022-12-03T15:57:32.763Z,10.90
2022-12-03T16:00:42.680Z,9.65
2022-12-03T16:04:00.033Z,11.07
2022-12-03T16:07:03.812Z,16.05
2022-12-03T16:10:07.040Z,12.30
2022-12-03T16:13:13.037Z,10.15
2022-12-03T16:16:15.599Z,8.93
2022-12-03T16:19:18.430Z,10.27
2022-12-03T16:22:22.317Z,9.63
2022-12-03T16:25:25.148Z,9.63
2022-12-03T16:28:27.702Z,10.98
2022-12-03T16:31:30.439Z,10.50
2022-12-03T16:34:33.134Z,11.48
2022-12-03T16:37:36.952Z,10.60
2022-12-03T16:40:39.502Z,10.52
2022-12-03T16:43:45.320Z,10.25
2022-12-03T16:46:48.986Z,10.32
2022-12-03T16:49:51.702Z,8.85
2022-12-03T16:52:55.863Z,9.25
2022-12-03T16:55:58.559Z,9.05
2022-12-03T16:59:01.014Z,10.07
2022-12-03T17:02:03.568Z,8.95
2022-12-03T17:05:06.479Z,9.63
2022-12-03T17:08:10.477Z,8.70
2022-12-03T17:11:14.744Z,9.18
2022-12-03T17:14:17.416Z,8.65
2022-12-03T17:17:20.149Z,9.32
2022-12-03T17:20:22.925Z,9.57
2022-12-03T17:23:26.996Z,11.57
2022-12-03T17:26:29.750Z,10.05
2022-12-03T17:29:32.372Z,9.82
2022-12-03T17:32:42.490Z,9.27
2022-12-03T17:35:46.394Z,11.40
2022-12-03T17:38:50.462Z,11.77
2022-12-03T17:41:53.081Z,14.50
2022-12-03T17:44:55.789Z,15.07
2022-12-03T17:48:00.089Z,10.45
2022-12-03T17:51:02.841Z,15.85
2022-12-03T17:54:07.149Z,26.50
2022-12-03T17:57:09.835Z,57.83
2022-12-03T18:00:13.421Z,43.80
2022-12-03T18:03:17.556Z,20.45
2022-12-03T18:06:20.185Z,16.13
2022-12-03T18:09:24.106Z,15.30
2022-12-03T18:12:26.814Z,12.98
2022-12-03T18:15:29.742Z,11.82
2022-12-03T18:18:33.035Z,11.88
2022-12-03T18:21:36.691Z,10.98
2022-12-03T18:24:41.024Z,11.20
2022-12-03T18:27:43.959Z,13.50
2022-12-03T18:30:52.219Z,12.02
2022-12-03T18:33:55.895Z,11.57
2022-12-03T18:36:58.755Z,14.45
2022-12-03T18:40:12.438Z,10.35
2022-12-03T18:43:16.925Z,10.55
2022-12-03T18:49:42.044Z,29.55
2022-12-03T18:52:45.111Z,13.52
2022-12-03T18:55:49.139Z,15.65
2022-12-03T18:58:54.493Z,10.80
2022-12-03T19:01:57.678Z,15.10
2022-12-03T19:05:00.546Z,13.77
2022-12-03T19:08:04.186Z,15.15
2022-12-03T19:11:08.418Z,12.77
2022-12-03T19:14:11.932Z,12.60
2022-12-03T19:17:14.742Z,12.35
2022-12-03T19:20:17.669Z,13.13
2022-12-03T19:23:20.438Z,11.63
2022-12-03T19:26:24.473Z,12.98
2022-12-03T19:29:27.141Z,12.68
2022-12-03T19:32:30.335Z,13.50
2022-12-03T19:35:33.503Z,12.80
2022-12-03T19:38:36.108Z,11.90
2022-12-03T19:41:41.719Z,11.70
2022-12-03T19:44:44.206Z,12.15
2022-12-03T19:47:46.699Z,12.68
2022-12-03T19:50:58.196Z,13.07
2022-12-03T19:54:12.107Z,12.30
2022-12-03T19:57:22.903Z,9.70
2022-12-03T20:00:26.029Z,11.15
2022-12-03T20:03:28.624Z,12.27
2022-12-03T20:06:31.735Z,12.68
2022-12-03T20:09:34.274Z,12.35
2022-12-03T20:12:38.147Z,12.80
2022-12-03T20:15:40.600Z,11.00
2022-12-03T20:18:44.388Z,12.40
2022-12-03T20:21:46.907Z,11.05
2022-12-03T20:24:49.433Z,14.73
2022-12-03T20:27:53.398Z,14.23
2022-12-03T20:30:59.084Z,16.40
2022-12-03T20:34:02.558Z,12.35
2022-12-03T20:37:05.289Z,13.52
2022-12-03T20:40:08.542Z,15.02
2022-12-03T20:43:12.459Z,13.43
2022-12-03T20:46:15.831Z,13.70
2022-12-03T20:49:18.642Z,11.27
2022-12-03T20:52:21.198Z,12.88
2022-12-03T20:55:23.765Z,20.88
2022-12-03T20:58:27.763Z,13.88
2022-12-03T21:01:30.347Z,14.15
2022-12-03T21:04:32.977Z,13.20
2022-12-03T21:07:35.581Z,14.35
2022-12-03T21:10:37.143Z,13.90
2022-12-03T21:13:43.392Z,14.77
2022-12-03T21:20:14.569Z,13.40
2022-12-03T21:23:20.856Z,12.23
2022-12-03T21:26:24.021Z,14.43
2022-12-03T21:29:27.884Z,18.80
2022-12-03T21:32:30.588Z,20.65
2022-12-03T21:35:33.592Z,15.45
2022-12-03T21:38:36.143Z,14.55
2022-12-03T21:41:38.678Z,14.02
2022-12-03T21:44:42.547Z,13.90
2022-12-03T21:47:47.319Z,14.88
2022-12-03T21:50:58.537Z,11.68
2022-12-03T21:54:01.036Z,13.70
2022-12-03T21:57:03.616Z,14.20
2022-12-03T22:00:09.269Z,14.00
2022-12-03T22:03:14.813Z,14.05
2022-12-03T22:06:17.903Z,13.65
2022-12-03T22:09:26.132Z,14.25
2022-12-03T22:12:29.213Z,12.95
2022-12-03T22:15:33.189Z,14.35
2022-12-03T22:18:36.111Z,15.20
2022-12-03T22:21:38.614Z,15.50
2022-12-03T22:24:41.127Z,12.95
2022-12-03T22:27:43.689Z,11.57
2022-12-03T22:30:47.888Z,11.10
2022-12-03T22:33:50.475Z,14.43
2022-12-03T22:36:53.133Z,14.18
2022-12-03T22:39:55.762Z,15.00
2022-12-03T22:42:58.461Z,13.63
2022-12-03T22:46:02.415Z,13.98
2022-12-03T22:49:07.360Z,12.45
2022-12-03T22:52:10.051Z,13.50
2022-12-03T22:55:12.598Z,14.63
2022-12-03T22:58:15.130Z,13.07
2022-12-03T23:01:26.081Z,13.18
2022-12-03T23:04:28.661Z,12.18
2022-12-03T23:07:31.386Z,10.65
2022-12-03T23:10:34.377Z,12.48
2022-12-03T23:13:36.857Z,12.13
2022-12-03T23:16:41.283Z,12.15
2022-12-03T23:19:44.157Z,10.65
2022-12-03T23:22:48.633Z,10.23
2022-12-03T23:25:56.934Z,12.40
2022-12-03T23:28:59.435Z,11.93
2022-12-03T23:32:03.426Z,10.68
2022-12-03T23:35:06.782Z,11.60
2022-12-03T23:38:09.347Z,12.18
2022-12-03T23:41:13.102Z,11.10
2022-12-03T23:44:15.636Z,12.45
2022-12-03T23:47:18.504Z,10.98
2022-12-03T23:50:21.042Z,10.80
2022-12-03T23:53:23.725Z,10.88
2022-12-03T23:56:29.008Z,9.88
2022-12-03T23:59:31.534Z,11.65
